sensor_id;sensor_type;location;lat;lon;timestamp;P1;durP1;ratioP1;P2;durP2;ratioP2
74799;SDS011;63326;45.088;7.658;2023-04-01T00:01:03;0.55;;;0.03;;
74799;SDS011;63326;45.088;7.658;2023-04-01T00:03:32;0.95;;;0.08;;
74799;SDS011;63326;45.088;7.658;2023-04-01T00:06:00;0.63;;;0.08;;
74799;SDS011;63326;45.088;7.658;2023-04-01T00:08:28;0.32;;;0.20;;
74799;SDS011;63326;45.088;7.658;2023-04-01T00:10:54;0.00;;;0.00;;
74799;SDS011;63326;45.088;7.658;2023-04-01T00:13:23;2.90;;;0.13;;
74799;SDS011;63326;45.088;7.658;2023-04-01T00:15:53;0.00;;;0.00;;
74799;SDS011;63326;45.088;7.658;2023-04-01T00:18:22;0.00;;;0.00;;
74799;SDS011;63326;45.088;7.658;2023-04-01T00:20:49;0.90;;;0.28;;
74799;SDS011;63326;45.088;7.658;2023-04-01T00:23:17;4.70;;;0.20;;
74799;SDS011;63326;45.088;7.658;2023-04-01T00:25:44;4.47;;;0.10;;
74799;SDS011;63326;45.088;7.658;2023-04-01T00:28:15;0.10;;;0.10;;
74799;SDS011;63326;45.088;7.658;2023-04-01T00:30:44;0.08;;;0.08;;
74799;SDS011;63326;45.088;7.658;2023-04-01T00:33:11;0.28;;;0.20;;
74799;SDS011;63326;45.088;7.658;2023-04-01T00:35:38;0.00;;;0.00;;
74799;SDS011;63326;45.088;7.658;2023-04-01T00:38:05;0.40;;;0.20;;
74799;SDS011;63326;45.088;7.658;2023-04-01T00:40:34;0.05;;;0.05;;
74799;SDS011;63326;45.088;7.658;2023-04-01T00:43:05;0.05;;;0.05;;
74799;SDS011;63326;45.088;7.658;2023-04-01T00:45:45;0.30;;;0.30;;
74799;SDS011;63326;45.088;7.658;2023-04-01T00:50:50;0.20;;;0.15;;
74799;SDS011;63326;45.088;7.658;2023-04-01T00:53:20;0.10;;;0.00;;
74799;SDS011;63326;45.088;7.658;2023-04-01T00:55:50;0.52;;;0.17;;
74799;SDS011;63326;45.088;7.658;2023-04-01T00:58:24;0.20;;;0.00;;
74799;SDS011;63326;45.088;7.658;2023-04-01T01:00:55;0.00;;;0.00;;
74799;SDS011;63326;45.088;7.658;2023-04-01T01:03:24;0.00;;;0.00;;
74799;SDS011;63326;45.088;7.658;2023-04-01T01:06:01;0.00;;;0.00;;
74799;SDS011;63326;45.088;7.658;2023-04-01T01:11:39;0.85;;;0.20;;
74799;SDS011;63326;45.088;7.658;2023-04-01T01:14:34;0.30;;;0.15;;
74799;SDS011;63326;45.088;7.658;2023-04-01T01:28:28;0.10;;;0.10;;
74799;SDS011;63326;45.088;7.658;2023-04-01T01:36:19;0.40;;;0.10;;
74799;SDS011;63326;45.088;7.658;2023-04-01T01:38:48;0.13;;;0.08;;
74799;SDS011;63326;45.088;7.658;2023-04-01T01:41:16;0.10;;;0.10;;
74799;SDS011;63326;45.088;7.658;2023-04-01T01:43:47;0.10;;;0.10;;
74799;SDS011;63326;45.088;7.658;2023-04-01T01:46:21;0.03;;;0.03;;
74799;SDS011;63326;45.088;7.658;2023-04-01T01:48:51;0.10;;;0.10;;
74799;SDS011;63326;45.088;7.658;2023-04-01T01:51:18;0.03;;;0.03;;
74799;SDS011;63326;45.088;7.658;2023-04-01T01:53:47;0.08;;;0.08;;
74799;SDS011;63326;45.088;7.658;2023-04-01T01:56:17;0.13;;;0.13;;
74799;SDS011;63326;45.088;7.658;2023-04-01T01:58:47;0.10;;;0.08;;
74799;SDS011;63326;45.088;7.658;2023-04-01T02:01:21;0.03;;;0.03;;
74799;SDS011;63326;45.088;7.658;2023-04-01T02:03:56;0.00;;;0.00;;
74799;SDS011;63326;45.088;7.658;2023-04-01T02:06:25;0.15;;;0.10;;
74799;SDS011;63326;45.088;7.658;2023-04-01T02:08:55;3.40;;;0.13;;
74799;SDS011;63326;45.088;7.658;2023-04-01T02:11:27;0.17;;;0.10;;
74799;SDS011;63326;45.088;7.658;2023-04-01T02:14:21;0.03;;;0.03;;
74799;SDS011;63326;45.088;7.658;2023-04-01T02:16:56;0.03;;;0.03;;
74799;SDS011;63326;45.088;7.658;2023-04-01T02:19:27;0.10;;;0.10;;
74799;SDS011;63326;45.088;7.658;2023-04-01T02:22:00;0.00;;;0.00;;
74799;SDS011;63326;45.088;7.658;2023-04-01T02:24:30;0.90;;;0.20;;
74799;SDS011;63326;45.088;7.658;2023-04-01T02:27:00;0.00;;;0.00;;
74799;SDS011;63326;45.088;7.658;2023-04-01T02:29:29;0.30;;;0.30;;
74799;SDS011;63326;45.088;7.658;2023-04-01T02:31:56;0.00;;;0.00;;
74799;SDS011;63326;45.088;7.658;2023-04-01T02:34:24;0.55;;;0.15;;
74799;SDS011;63326;45.088;7.658;2023-04-01T02:36:52;0.10;;;0.10;;
74799;SDS011;63326;45.088;7.658;2023-04-01T02:39:21;6.30;;;0.13;;
74799;SDS011;63326;45.088;7.658;2023-04-01T02:41:48;4.40;;;0.30;;
74799;SDS011;63326;45.088;7.658;2023-04-01T02:44:15;0.00;;;0.00;;
74799;SDS011;63326;45.088;7.658;2023-04-01T02:46:42;1.15;;;0.15;;
74799;SDS011;63326;45.088;7.658;2023-04-01T02:49:10;0.05;;;0.03;;
74799;SDS011;63326;45.088;7.658;2023-04-01T02:51:37;0.03;;;0.03;;
74799;SDS011;63326;45.088;7.658;2023-04-01T02:54:04;1.77;;;0.10;;
74799;SDS011;63326;45.088;7.658;2023-04-01T02:56:31;0.32;;;0.10;;
74799;SDS011;63326;45.088;7.658;2023-04-01T02:58:57;0.00;;;0.00;;
74799;SDS011;63326;45.088;7.658;2023-04-01T03:01:24;0.10;;;0.10;;
74799;SDS011;63326;45.088;7.658;2023-04-01T03:03:51;0.08;;;0.08;;
74799;SDS011;63326;45.088;7.658;2023-04-01T03:06:18;0.10;;;0.10;;
74799;SDS011;63326;45.088;7.658;2023-04-01T03:08:45;0.00;;;0.00;;
74799;SDS011;63326;45.088;7.658;2023-04-01T03:11:12;0.10;;;0.10;;
74799;SDS011;63326;45.088;7.658;2023-04-01T03:13:39;0.15;;;0.15;;
74799;SDS011;63326;45.088;7.658;2023-04-01T03:16:06;0.55;;;0.10;;
74799;SDS011;63326;45.088;7.658;2023-04-01T03:18:34;0.00;;;0.00;;
74799;SDS011;63326;45.088;7.658;2023-04-01T03:21:22;0.10;;;0.10;;
74799;SDS011;63326;45.088;7.658;2023-04-01T03:23:49;0.25;;;0.10;;
74799;SDS011;63326;45.088;7.658;2023-04-01T03:26:16;0.65;;;0.35;;
74799;SDS011;63326;45.088;7.658;2023-04-01T03:28:44;0.10;;;0.03;;
74799;SDS011;63326;45.088;7.658;2023-04-01T03:31:11;1.55;;;0.20;;
74799;SDS011;63326;45.088;7.658;2023-04-01T03:33:45;0.30;;;0.28;;
74799;SDS011;63326;45.088;7.658;2023-04-01T03:36:12;0.20;;;0.13;;
74799;SDS011;63326;45.088;7.658;2023-04-01T03:38:42;1.17;;;0.05;;
74799;SDS011;63326;45.088;7.658;2023-04-01T03:41:14;0.03;;;0.03;;
74799;SDS011;63326;45.088;7.658;2023-04-01T03:43:43;0.05;;;0.05;;
74799;SDS011;63326;45.088;7.658;2023-04-01T03:46:10;0.40;;;0.10;;
74799;SDS011;63326;45.088;7.658;2023-04-01T03:48:37;0.10;;;0.10;;
74799;SDS011;63326;45.088;7.658;2023-04-01T03:51:07;0.03;;;0.03;;
74799;SDS011;63326;45.088;7.658;2023-04-01T03:53:34;0.10;;;0.10;;
74799;SDS011;63326;45.088;7.658;2023-04-01T03:56:07;0.85;;;0.30;;
74799;SDS011;63326;45.088;7.658;2023-04-01T03:58:35;0.00;;;0.00;;
74799;SDS011;63326;45.088;7.658;2023-04-01T04:01:26;0.20;;;0.20;;
74799;SDS011;63326;45.088;7.658;2023-04-01T04:03:54;0.03;;;0.03;;
74799;SDS011;63326;45.088;7.658;2023-04-01T04:06:21;0.05;;;0.05;;
74799;SDS011;63326;45.088;7.658;2023-04-01T04:11:16;0.35;;;0.20;;
74799;SDS011;63326;45.088;7.658;2023-04-01T04:13:43;0.10;;;0.10;;
74799;SDS011;63326;45.088;7.658;2023-04-01T04:16:10;0.13;;;0.10;;
74799;SDS011;63326;45.088;7.658;2023-04-01T04:18:42;0.00;;;0.00;;
74799;SDS011;63326;45.088;7.658;2023-04-01T04:21:13;0.20;;;0.20;;
74799;SDS011;63326;45.088;7.658;2023-04-01T04:23:41;0.35;;;0.22;;
74799;SDS011;63326;45.088;7.658;2023-04-01T04:26:14;0.00;;;0.00;;
74799;SDS011;63326;45.088;7.658;2023-04-01T04:28:46;0.05;;;0.03;;
74799;SDS011;63326;45.088;7.658;2023-04-01T04:31:18;0.00;;;0.00;;
74799;SDS011;63326;45.088;7.658;2023-04-01T04:33:49;1.85;;;0.35;;
74799;SDS011;63326;45.088;7.658;2023-04-01T04:38:45;0.20;;;0.13;;
74799;SDS011;63326;45.088;7.658;2023-04-01T04:41:13;0.00;;;0.00;;
74799;SDS011;63326;45.088;7.658;2023-04-01T04:43:48;0.00;;;0.00;;
74799;SDS011;63326;45.088;7.658;2023-04-01T04:46:17;0.20;;;0.20;;
74799;SDS011;63326;45.088;7.658;2023-04-01T04:48:46;0.05;;;0.05;;
74799;SDS011;63326;45.088;7.658;2023-04-01T04:51:15;0.00;;;0.00;;
74799;SDS011;63326;45.088;7.658;2023-04-01T04:53:44;0.00;;;0.00;;
74799;SDS011;63326;45.088;7.658;2023-04-01T04:56:17;0.10;;;0.10;;
74799;SDS011;63326;45.088;7.658;2023-04-01T04:58:53;0.00;;;0.00;;
74799;SDS011;63326;45.088;7.658;2023-04-01T05:01:24;0.22;;;0.22;;
74799;SDS011;63326;45.088;7.658;2023-04-01T05:06:19;0.10;;;0.08;;
74799;SDS011;63326;45.088;7.658;2023-04-01T05:08:49;0.52;;;0.15;;
74799;SDS011;63326;45.088;7.658;2023-04-01T05:11:16;0.00;;;0.00;;
74799;SDS011;63326;45.088;7.658;2023-04-01T05:13:45;0.00;;;0.00;;
74799;SDS011;63326;45.088;7.658;2023-04-01T05:16:13;0.00;;;0.00;;
74799;SDS011;63326;45.088;7.658;2023-04-01T05:18:42;0.17;;;0.10;;
74799;SDS011;63326;45.088;7.658;2023-04-01T05:21:10;0.03;;;0.00;;
74799;SDS011;63326;45.088;7.658;2023-04-01T05:23:38;0.00;;;0.00;;
74799;SDS011;63326;45.088;7.658;2023-04-01T05:26:06;0.00;;;0.00;;
74799;SDS011;63326;45.088;7.658;2023-04-01T05:28:34;0.05;;;0.05;;
74799;SDS011;63326;45.088;7.658;2023-04-01T05:31:02;0.22;;;0.20;;
74799;SDS011;63326;45.088;7.658;2023-04-01T05:33:33;0.13;;;0.08;;
74799;SDS011;63326;45.088;7.658;2023-04-01T05:38:32;0.00;;;0.00;;
74799;SDS011;63326;45.088;7.658;2023-04-01T05:41:02;0.00;;;0.00;;
74799;SDS011;63326;45.088;7.658;2023-04-01T05:43:31;0.38;;;0.20;;
74799;SDS011;63326;45.088;7.658;2023-04-01T05:46:18;0.10;;;0.10;;
74799;SDS011;63326;45.088;7.658;2023-04-01T05:48:51;0.03;;;0.03;;
74799;SDS011;63326;45.088;7.658;2023-04-01T05:51:19;0.10;;;0.10;;
74799;SDS011;63326;45.088;7.658;2023-04-01T05:53:46;0.00;;;0.00;;
74799;SDS011;63326;45.088;7.658;2023-04-01T05:56:13;0.50;;;0.20;;
74799;SDS011;63326;45.088;7.658;2023-04-01T05:58:46;0.00;;;0.00;;
74799;SDS011;63326;45.088;7.658;2023-04-01T06:01:17;0.00;;;0.00;;
74799;SDS011;63326;45.088;7.658;2023-04-01T06:03:45;0.32;;;0.10;;
74799;SDS011;63326;45.088;7.658;2023-04-01T06:06:18;0.03;;;0.03;;
74799;SDS011;63326;45.088;7.658;2023-04-01T06:08:51;0.10;;;0.10;;
74799;SDS011;63326;45.088;7.658;2023-04-01T06:11:32;0.60;;;0.15;;
74799;SDS011;63326;45.088;7.658;2023-04-01T06:30:06;0.00;;;0.00;;
74799;SDS011;63326;45.088;7.658;2023-04-01T06:32:54;0.32;;;0.20;;
74799;SDS011;63326;45.088;7.658;2023-04-01T06:46:59;0.30;;;0.10;;
74799;SDS011;63326;45.088;7.658;2023-04-01T06:52:36;0.10;;;0.10;;
74799;SDS011;63326;45.088;7.658;2023-04-01T06:55:32;0.00;;;0.00;;
74799;SDS011;63326;45.088;7.658;2023-04-01T07:00:58;0.80;;;0.35;;
74799;SDS011;63326;45.088;7.658;2023-04-01T07:06:31;0.03;;;0.03;;
74799;SDS011;63326;45.088;7.658;2023-04-01T07:09:10;0.00;;;0.00;;
74799;SDS011;63326;45.088;7.658;2023-04-01T07:12:06;0.00;;;0.00;;
74799;SDS011;63326;45.088;7.658;2023-04-01T07:15:04;0.10;;;0.10;;
74799;SDS011;63326;45.088;7.658;2023-04-01T07:18:05;0.00;;;0.00;;
74799;SDS011;63326;45.088;7.658;2023-04-01T07:20:38;0.00;;;0.00;;
74799;SDS011;63326;45.088;7.658;2023-04-01T07:26:19;0.05;;;0.05;;
74799;SDS011;63326;45.088;7.658;2023-04-01T07:29:14;0.05;;;0.00;;
74799;SDS011;63326;45.088;7.658;2023-04-01T07:31:56;0.20;;;0.03;;
74799;SDS011;63326;45.088;7.658;2023-04-01T07:38:28;0.00;;;0.00;;
74799;SDS011;63326;45.088;7.658;2023-04-01T07:48:26;2.00;;;0.22;;
74799;SDS011;63326;45.088;7.658;2023-04-01T07:51:03;0.08;;;0.00;;
74799;SDS011;63326;45.088;7.658;2023-04-01T07:53:49;0.65;;;0.10;;
74799;SDS011;63326;45.088;7.658;2023-04-01T07:56:45;0.13;;;0.03;;
74799;SDS011;63326;45.088;7.658;2023-04-01T07:59:20;0.32;;;0.13;;
74799;SDS011;63326;45.088;7.658;2023-04-01T08:13:46;0.95;;;0.40;;
74799;SDS011;63326;45.088;7.658;2023-04-01T08:16:21;0.30;;;0.13;;
74799;SDS011;63326;45.088;7.658;2023-04-01T08:19:15;1.27;;;0.40;;
74799;SDS011;63326;45.088;7.658;2023-04-01T08:21:49;0.32;;;0.30;;
74799;SDS011;63326;45.088;7.658;2023-04-01T08:24:27;1.13;;;0.40;;
74799;SDS011;63326;45.088;7.658;2023-04-01T08:27:21;0.10;;;0.10;;
74799;SDS011;63326;45.088;7.658;2023-04-01T08:29:57;0.73;;;0.00;;
74799;SDS011;63326;45.088;7.658;2023-04-01T08:32:36;0.22;;;0.13;;
74799;SDS011;63326;45.088;7.658;2023-04-01T08:40:49;0.20;;;0.10;;
74799;SDS011;63326;45.088;7.658;2023-04-01T08:49:32;0.63;;;0.30;;
74799;SDS011;63326;45.088;7.658;2023-04-01T08:55:30;0.17;;;0.10;;
74799;SDS011;63326;45.088;7.658;2023-04-01T09:07:42;0.73;;;0.43;;
74799;SDS011;63326;45.088;7.658;2023-04-01T09:10:38;0.30;;;0.30;;
74799;SDS011;63326;45.088;7.658;2023-04-01T09:16:44;0.10;;;0.10;;
74799;SDS011;63326;45.088;7.658;2023-04-01T09:25:44;0.47;;;0.10;;
74799;SDS011;63326;45.088;7.658;2023-04-01T09:37:19;0.20;;;0.20;;
74799;SDS011;63326;45.088;7.658;2023-04-01T09:48:31;0.35;;;0.22;;
74799;SDS011;63326;45.088;7.658;2023-04-01T10:02:33;3.25;;;0.32;;
74799;SDS011;63326;45.088;7.658;2023-04-01T10:11:30;0.10;;;0.03;;
74799;SDS011;63326;45.088;7.658;2023-04-01T10:32:00;0.22;;;0.13;;
74799;SDS011;63326;45.088;7.658;2023-04-01T10:34:56;0.22;;;0.20;;
74799;SDS011;63326;45.088;7.658;2023-04-01T11:14:17;0.10;;;0.10;;
74799;SDS011;63326;45.088;7.658;2023-04-01T11:25:51;0.35;;;0.25;;
74799;SDS011;63326;45.088;7.658;2023-04-01T11:31:57;0.80;;;0.30;;
74799;SDS011;63326;45.088;7.658;2023-04-01T11:37:37;0.35;;;0.30;;
74799;SDS011;63326;45.088;7.658;2023-04-01T11:49:56;0.50;;;0.32;;
74799;SDS011;63326;45.088;7.658;2023-04-01T11:55:29;0.40;;;0.40;;
74799;SDS011;63326;45.088;7.658;2023-04-01T12:04:11;0.50;;;0.40;;
74799;SDS011;63326;45.088;7.658;2023-04-01T12:06:51;0.93;;;0.77;;
74799;SDS011;63326;45.088;7.658;2023-04-01T12:20:50;0.25;;;0.20;;
74799;SDS011;63326;45.088;7.658;2023-04-01T12:26:10;0.10;;;0.10;;
74799;SDS011;63326;45.088;7.658;2023-04-01T12:32:15;0.55;;;0.30;;
74799;SDS011;63326;45.088;7.658;2023-04-01T12:39:55;0.28;;;0.28;;
74799;SDS011;63326;45.088;7.658;2023-04-01T12:53:34;0.75;;;0.43;;
74799;SDS011;63326;45.088;7.658;2023-04-01T12:56:36;0.25;;;0.25;;
74799;SDS011;63326;45.088;7.658;2023-04-01T12:59:14;0.60;;;0.20;;
74799;SDS011;63326;45.088;7.658;2023-04-01T13:02:05;0.47;;;0.40;;
74799;SDS011;63326;45.088;7.658;2023-04-01T13:10:56;0.30;;;0.20;;
74799;SDS011;63326;45.088;7.658;2023-04-01T13:21:12;0.47;;;0.47;;
74799;SDS011;63326;45.088;7.658;2023-04-01T13:26:53;0.28;;;0.22;;
74799;SDS011;63326;45.088;7.658;2023-04-01T13:29:35;0.22;;;0.22;;
74799;SDS011;63326;45.088;7.658;2023-04-01T13:43:34;1.55;;;0.20;;
74799;SDS011;63326;45.088;7.658;2023-04-01T13:54:48;0.65;;;0.20;;
74799;SDS011;63326;45.088;7.658;2023-04-01T14:01:19;0.47;;;0.47;;
74799;SDS011;63326;45.088;7.658;2023-04-01T14:25:35;0.30;;;0.30;;
74799;SDS011;63326;45.088;7.658;2023-04-01T14:42:55;0.63;;;0.32;;
74799;SDS011;63326;45.088;7.658;2023-04-01T14:48:32;1.73;;;0.93;;
74799;SDS011;63326;45.088;7.658;2023-04-01T14:51:08;0.73;;;0.57;;
74799;SDS011;63326;45.088;7.658;2023-04-01T14:53:43;0.52;;;0.43;;
74799;SDS011;63326;45.088;7.658;2023-04-01T14:56:39;0.60;;;0.43;;
74799;SDS011;63326;45.088;7.658;2023-04-01T14:59:29;0.68;;;0.25;;
74799;SDS011;63326;45.088;7.658;2023-04-01T15:02:18;0.30;;;0.30;;
74799;SDS011;63326;45.088;7.658;2023-04-01T15:18:37;0.40;;;0.30;;
74799;SDS011;63326;45.088;7.658;2023-04-01T15:34:42;0.52;;;0.22;;
74799;SDS011;63326;45.088;7.658;2023-04-01T15:37:40;0.60;;;0.30;;
74799;SDS011;63326;45.088;7.658;2023-04-01T15:40:30;0.45;;;0.30;;
74799;SDS011;63326;45.088;7.658;2023-04-01T15:43:21;0.82;;;0.50;;
74799;SDS011;63326;45.088;7.658;2023-04-01T15:45:58;0.40;;;0.32;;
74799;SDS011;63326;45.088;7.658;2023-04-01T15:51:20;0.70;;;0.32;;
74799;SDS011;63326;45.088;7.658;2023-04-01T16:16:29;0.15;;;0.13;;
74799;SDS011;63326;45.088;7.658;2023-04-01T16:21:36;0.80;;;0.40;;
74799;SDS011;63326;45.088;7.658;2023-04-01T16:24:20;0.20;;;0.20;;
74799;SDS011;63326;45.088;7.658;2023-04-01T16:29:28;1.02;;;0.15;;
74799;SDS011;63326;45.088;7.658;2023-04-01T16:32:11;0.20;;;0.20;;
74799;SDS011;63326;45.088;7.658;2023-04-01T16:34:44;0.60;;;0.20;;
74799;SDS011;63326;45.088;7.658;2023-04-01T16:37:21;0.15;;;0.08;;
74799;SDS011;63326;45.088;7.658;2023-04-01T16:45:19;0.60;;;0.30;;
74799;SDS011;63326;45.088;7.658;2023-04-01T16:47:56;0.32;;;0.13;;
74799;SDS011;63326;45.088;7.658;2023-04-01T16:51:07;0.17;;;0.17;;
74799;SDS011;63326;45.088;7.658;2023-04-01T16:53:31;0.13;;;0.10;;
74799;SDS011;63326;45.088;7.658;2023-04-01T16:56:22;0.10;;;0.10;;
74799;SDS011;63326;45.088;7.658;2023-04-01T17:01:29;1.52;;;0.30;;
74799;SDS011;63326;45.088;7.658;2023-04-01T17:12:46;1.05;;;0.45;;
74799;SDS011;63326;45.088;7.658;2023-04-01T17:18:41;0.88;;;0.20;;
74799;SDS011;63326;45.088;7.658;2023-04-01T17:24:35;0.57;;;0.30;;
74799;SDS011;63326;45.088;7.658;2023-04-01T17:27:23;0.90;;;0.30;;
74799;SDS011;63326;45.088;7.658;2023-04-01T17:30:13;2.10;;;0.22;;
74799;SDS011;63326;45.088;7.658;2023-04-01T17:35:52;0.47;;;0.22;;
74799;SDS011;63326;45.088;7.658;2023-04-01T17:38:47;0.55;;;0.30;;
74799;SDS011;63326;45.088;7.658;2023-04-01T17:41:28;0.17;;;0.15;;
74799;SDS011;63326;45.088;7.658;2023-04-01T17:49:45;0.30;;;0.20;;
74799;SDS011;63326;45.088;7.658;2023-04-01T17:52:41;0.68;;;0.30;;
74799;SDS011;63326;45.088;7.658;2023-04-01T17:58:06;0.73;;;0.40;;
74799;SDS011;63326;45.088;7.658;2023-04-01T18:06:21;1.48;;;0.75;;
74799;SDS011;63326;45.088;7.658;2023-04-01T18:14:36;1.73;;;0.30;;
74799;SDS011;63326;45.088;7.658;2023-04-01T18:17:17;0.60;;;0.30;;
74799;SDS011;63326;45.088;7.658;2023-04-01T18:19:59;0.10;;;0.10;;
74799;SDS011;63326;45.088;7.658;2023-04-01T18:22:55;1.55;;;0.20;;
74799;SDS011;63326;45.088;7.658;2023-04-01T18:39:18;0.25;;;0.20;;
74799;SDS011;63326;45.088;7.658;2023-04-01T18:58:23;0.40;;;0.20;;
74799;SDS011;63326;45.088;7.658;2023-04-01T19:06:44;0.22;;;0.13;;
74799;SDS011;63326;45.088;7.658;2023-04-01T19:09:19;0.77;;;0.30;;
74799;SDS011;63326;45.088;7.658;2023-04-01T19:12:13;0.38;;;0.20;;
74799;SDS011;63326;45.088;7.658;2023-04-01T19:26:27;0.22;;;0.05;;
74799;SDS011;63326;45.088;7.658;2023-04-01T19:37:40;0.63;;;0.40;;
74799;SDS011;63326;45.088;7.658;2023-04-01T19:40:29;0.40;;;0.30;;
74799;SDS011;63326;45.088;7.658;2023-04-01T19:46:30;0.50;;;0.30;;
74799;SDS011;63326;45.088;7.658;2023-04-01T19:54:21;0.28;;;0.20;;
74799;SDS011;63326;45.088;7.658;2023-04-01T19:57:04;0.28;;;0.15;;
74799;SDS011;63326;45.088;7.658;2023-04-01T19:59:39;0.47;;;0.10;;
74799;SDS011;63326;45.088;7.658;2023-04-01T20:04:48;0.03;;;0.03;;
74799;SDS011;63326;45.088;7.658;2023-04-01T20:15:44;0.63;;;0.40;;
74799;SDS011;63326;45.088;7.658;2023-04-01T20:18:15;1.38;;;0.50;;
74799;SDS011;63326;45.088;7.658;2023-04-01T20:20:56;0.82;;;0.38;;
74799;SDS011;63326;45.088;7.658;2023-04-01T20:26:06;0.35;;;0.10;;
74799;SDS011;63326;45.088;7.658;2023-04-01T20:39:19;0.50;;;0.30;;
74799;SDS011;63326;45.088;7.658;2023-04-01T20:42:29;0.10;;;0.08;;
74799;SDS011;63326;45.088;7.658;2023-04-01T20:45:34;0.35;;;0.22;;
74799;SDS011;63326;45.088;7.658;2023-04-01T20:50:58;0.88;;;0.40;;
74799;SDS011;63326;45.088;7.658;2023-04-01T20:53:36;0.70;;;0.20;;
74799;SDS011;63326;45.088;7.658;2023-04-01T21:15:43;0.73;;;0.40;;
74799;SDS011;63326;45.088;7.658;2023-04-01T21:37:36;0.13;;;0.13;;
74799;SDS011;63326;45.088;7.658;2023-04-01T21:40:34;0.00;;;0.00;;
74799;SDS011;63326;45.088;7.658;2023-04-01T22:02:15;0.00;;;0.00;;
74799;SDS011;63326;45.088;7.658;2023-04-01T22:07:21;0.32;;;0.22;;
74799;SDS011;63326;45.088;7.658;2023-04-01T22:17:32;2.50;;;0.88;;
74799;SDS011;63326;45.088;7.658;2023-04-01T22:23:02;1.70;;;0.77;;
74799;SDS011;63326;45.088;7.658;2023-04-01T22:28:37;4.00;;;1.73;;
74799;SDS011;63326;45.088;7.658;2023-04-01T22:31:12;2.10;;;0.63;;
74799;SDS011;63326;45.088;7.658;2023-04-01T22:34:00;1.70;;;0.90;;
74799;SDS011;63326;45.088;7.658;2023-04-01T22:37:02;0.98;;;0.55;;
74799;SDS011;63326;45.088;7.658;2023-04-01T22:43:00;1.48;;;0.55;;
74799;SDS011;63326;45.088;7.658;2023-04-01T22:45:42;2.10;;;0.95;;
74799;SDS011;63326;45.088;7.658;2023-04-01T22:51:03;0.95;;;0.75;;
74799;SDS011;63326;45.088;7.658;2023-04-01T22:56:34;0.40;;;0.28;;
74799;SDS011;63326;45.088;7.658;2023-04-01T22:59:08;0.90;;;0.57;;
74799;SDS011;63326;45.088;7.658;2023-04-01T23:01:43;1.63;;;0.52;;
74799;SDS011;63326;45.088;7.658;2023-04-01T23:04:16;0.93;;;0.32;;
74799;SDS011;63326;45.088;7.658;2023-04-01T23:06:48;2.47;;;0.50;;
74799;SDS011;63326;45.088;7.658;2023-04-01T23:09:34;0.63;;;0.30;;
74799;SDS011;63326;45.088;7.658;2023-04-01T23:12:04;0.32;;;0.15;;
74799;SDS011;63326;45.088;7.658;2023-04-01T23:14:41;0.28;;;0.28;;
74799;SDS011;63326;45.088;7.658;2023-04-01T23:25:36;0.70;;;0.43;;
74799;SDS011;63326;45.088;7.658;2023-04-01T23:31:07;1.15;;;0.47;;
74799;SDS011;63326;45.088;7.658;2023-04-01T23:36:41;1.27;;;0.65;;
74799;SDS011;63326;45.088;7.658;2023-04-01T23:41:46;0.73;;;0.50;;
74799;SDS011;63326;45.088;7.658;2023-04-01T23:44:13;1.02;;;0.55;;
74799;SDS011;63326;45.088;7.658;2023-04-01T23:46:42;1.88;;;0.55;;
74799;SDS011;63326;45.088;7.658;2023-04-01T23:49:14;0.93;;;0.52;;
74799;SDS011;63326;45.088;7.658;2023-04-01T23:52:09;5.28;;;0.73;;
74799;SDS011;63326;45.088;7.658;2023-04-01T23:54:43;0.82;;;0.70;;
74799;SDS011;63326;45.088;7.658;2023-04-01T23:57:15;1.73;;;0.70;;
74799;SDS011;63326;45.088;7.658;2023-04-01T23:59:59;1.45;;;0.57;;
